Time;durP1;ratioP1;P1;durP2;ratioP2;P2;SDS_P1;SDS_P2;PMS_P1;PMS_P2;Temp;Humidity;BMP_temperature;BMP_pressure;BME280_temperature;BME280_humidity;BME280_pressure;Samples;Min_cycle;Max_cycle;Signal;HPM_P1;HPM_P2
2024/03/29 00:01:33;;;;;;;;;;;;;;;;;;5072212;28;19916;-47
2024/03/29 00:04:00;;;;;;;;;;;;;;;;;;5062908;28;20293;-49
2024/03/29 00:06:26;;;;;;;;;;;;;;;;;;5071171;28;19919;-47
2024/03/29 00:08:52;;;;;;;;;;;;;;;;;;5063881;28;19975;-47
2024/03/29 00:11:18;;;;;;;;;;;;;;;;;;5069952;28;20292;-47
2024/03/29 00:13:44;;;;;;;;;;;;;;;;;;5065104;28;19909;-46
2024/03/29 00:16:11;;;;;;;;;;;;;;;;;;5068844;28;19932;-48
2024/03/29 00:18:37;;;;;;;;;;;;;;;;;;5066705;28;19916;-49
2024/03/29 00:21:03;;;;;;;;;;;;;;;;;;5058049;28;19913;-47
2024/03/29 00:23:30;;;;;;;;;;;;;;;;;;5057984;28;19912;-48
2024/03/29 00:25:59;;;;;;;;;;;;;;;;;;5066452;28;19913;-47
2024/03/29 00:28:25;;;;;;;;;;;;;;;;;;5067310;28;19908;-46
2024/03/29 00:30:51;;;;;;;;;;;;;;;;;;5065813;28;20034;-49
2024/03/29 00:33:17;;;;;;;;;;;;;;;;;;5068495;28;19952;-47
2024/03/29 00:35:43;;;;;;;;;;;;;;;;;;5064698;28;19917;-47
2024/03/29 00:38:09;;;;;;;;;;;;;;;;;;5068841;28;19944;-48
2024/03/29 00:40:36;;;;;;;;;;;;;;;;;;5063622;28;19948;-48
2024/03/29 00:43:02;;;;;;;;;;;;;;;;;;5068963;28;19912;-47
2024/03/29 00:45:28;;;;;;;;;;;;;;;;;;5063706;28;20315;-47
2024/03/29 00:47:55;;;;;;;;;;;;;;;;;;5067893;28;20328;-47
2024/03/29 00:50:21;;;;;;;;;;;;;;;;;;5061082;28;19913;-49
2024/03/29 00:52:48;;;;;;;;;;;;;;;;;;5054165;28;19909;-46
2024/03/29 00:55:14;;;;;;;;;;;;;;;;;;5063457;28;19912;-47
2024/03/29 00:57:40;;;;;;;;;;;;;;;;;;5050793;28;19962;-50
2024/03/29 01:00:06;;;;;;;;;;;;;;;;;;5063431;28;19991;-49
2024/03/29 01:02:32;;;;;;;;;;;;;;;;;;5069655;28;19921;-47
2024/03/29 01:04:58;;;;;;;;;;;;;;;;;;5062379;28;19917;-47
2024/03/29 01:07:24;;;;;;;;;;;;;;;;;;5052873;28;19915;-49
2024/03/29 01:09:50;;;;;;;;;;;;;;;;;;5061382;28;19943;-47
2024/03/29 01:12:18;;;;;;;;;;;;;;;;;;5070966;28;19963;-47
2024/03/29 01:14:44;;;;;;;;;;;;;;;;;;5060856;28;19919;-47
2024/03/29 01:17:11;;;;;;;;;;;;;;;;;;5071413;28;20355;-47
2024/03/29 01:19:37;;;;;;;;;;;;;;;;;;5063492;28;19963;-47
2024/03/29 01:22:04;;;;;;;;;;;;;;;;;;5051879;28;20008;-49
2024/03/29 01:24:30;;;;;;;;;;;;;;;;;;5059199;28;19924;-48
2024/03/29 01:26:56;;;;;;;;;;;;;;;;;;5072017;28;19909;-47
2024/03/29 01:29:22;;;;;;;;;;;;;;;;;;5059366;28;19921;-47
2024/03/29 01:31:48;;;;;;;;;;;;;;;;;;5072011;28;19948;-46
2024/03/29 01:34:14;;;;;;;;;;;;;;;;;;5059556;28;19913;-51
2024/03/29 01:36:40;;;;;;;;;;;;;;;;;;5071772;28;20385;-51
2024/03/29 01:39:08;;;;;;;;;;;;;;;;;;5060796;28;19913;-49
2024/03/29 01:41:34;;;;;;;;;;;;;;;;;;5070833;28;20373;-48
2024/03/29 01:44:00;;;;;;;;;;;;;;;;;;5061390;28;19917;-47
2024/03/29 01:46:26;;;;;;;;;;;;;;;;;;5069804;28;19909;-47
2024/03/29 01:48:52;;;;;;;;;;;;;;;;;;5065370;28;19912;-48
2024/03/29 01:51:18;;;;;;;;;;;;;;;;;;5036855;28;19912;-49
2024/03/29 01:53:44;;;;;;;;;;;;;;;;;;5056852;28;19916;-49
2024/03/29 01:56:10;;;;;;;;;;;;;;;;;;5049402;28;19914;-50
2024/03/29 01:58:37;;;;;;;;;;;;;;;;;;5066465;28;19916;-51
2024/03/29 02:01:03;;;;;;;;;;;;;;;;;;5052174;28;20008;-51
2024/03/29 02:03:29;;;;;;;;;;;;;;;;;;5051279;28;19920;-49
2024/03/29 02:05:57;;;;;;;;;;;;;;;;;;5068805;28;19954;-50
2024/03/29 02:08:23;;;;;;;;;;;;;;;;;;5070035;28;19913;-49
2024/03/29 02:10:51;;;;;;;;;;;;;;;;;;5068005;28;19908;-50
2024/03/29 02:13:17;;;;;;;;;;;;;;;;;;5070821;28;20456;-50
2024/03/29 02:15:43;;;;;;;;;;;;;;;;;;5067168;28;20276;-50
2024/03/29 02:18:09;;;;;;;;;;;;;;;;;;5051330;28;20277;-49
2024/03/29 02:20:36;;;;;;;;;;;;;;;;;;5063913;28;19916;-51
2024/03/29 02:23:02;;;;;;;;;;;;;;;;;;5058972;28;19917;-51
2024/03/29 02:25:28;;;;;;;;;;;;;;;;;;5066400;28;20042;-47
2024/03/29 02:27:55;;;;;;;;;;;;;;;;;;5071613;28;19913;-47
2024/03/29 02:30:21;;;;;;;;;;;;;;;;;;5048367;28;19916;-47
2024/03/29 02:32:47;;;;;;;;;;;;;;;;;;5071461;28;19919;-47
2024/03/29 02:35:13;;;;;;;;;;;;;;;;;;5066058;28;19919;-47
2024/03/29 02:37:39;;;;;;;;;;;;;;;;;;5053540;28;19912;-46
2024/03/29 02:40:05;;;;;;;;;;;;;;;;;;5041486;28;19909;-46
2024/03/29 02:42:32;;;;;;;;;;;;;;;;;;5055613;28;19966;-46
2024/03/29 02:44:58;;;;;;;;;;;;;;;;;;5064754;28;19909;-46
2024/03/29 02:47:24;;;;;;;;;;;;;;;;;;5073299;28;19913;-47
2024/03/29 02:49:50;;;;;;;;;;;;;;;;;;5063086;28;20431;-47
2024/03/29 02:52:16;;;;;;;;;;;;;;;;;;5054502;28;19920;-49
2024/03/29 02:54:42;;;;;;;;;;;;;;;;;;5063346;28;19909;-47
2024/03/29 02:57:08;;;;;;;;;;;;;;;;;;5056458;28;19966;-50
2024/03/29 02:59:34;;;;;;;;;;;;;;;;;;5024797;28;19909;-47
2024/03/29 03:02:00;;;;;;;;;;;;;;;;;;5054139;28;19913;-47
2024/03/29 03:04:26;;;;;;;;;;;;;;;;;;5060878;28;19916;-47
2024/03/29 03:06:52;;;;;;;;;;;;;;;;;;5074687;28;19914;-48
2024/03/29 03:12:03;;;;;;;;;;;;;;;;;;5074596;28;20284;-46
2024/03/29 03:14:29;;;;;;;;;;;;;;;;;;5061666;28;19999;-48
2024/03/29 03:16:56;;;;;;;;;;;;;;;;;;5074222;28;19912;-46
2024/03/29 03:19:23;;;;;;;;;;;;;;;;;;5067072;28;20391;-46
2024/03/29 03:21:49;;;;;;;;;;;;;;;;;;5054046;28;19916;-47
2024/03/29 03:24:15;;;;;;;;;;;;;;;;;;5059467;28;19919;-47
2024/03/29 03:26:41;;;;;;;;;;;;;;;;;;5055942;28;19916;-49
2024/03/29 03:29:09;;;;;;;;;;;;;;;;;;5061918;28;19963;-47
2024/03/29 03:31:35;;;;;;;;;;;;;;;;;;5071976;28;19912;-49
2024/03/29 03:34:01;;;;;;;;;;;;;;;;;;5063432;28;19909;-47
2024/03/29 03:36:27;;;;;;;;;;;;;;;;;;5071952;28;20273;-47
2024/03/29 03:38:53;;;;;;;;;;;;;;;;;;5064247;28;19999;-47
2024/03/29 03:41:19;;;;;;;;;;;;;;;;;;5070631;28;20379;-47
2024/03/29 03:43:45;;;;;;;;;;;;;;;;;;5047343;28;20404;-46
2024/03/29 03:46:11;;;;;;;;;;;;;;;;;;5069453;28;19956;-51
2024/03/29 03:48:37;;;;;;;;;;;;;;;;;;5067209;28;19915;-49
2024/03/29 03:51:04;;;;;;;;;;;;;;;;;;5058742;28;19913;-47
2024/03/29 03:53:30;;;;;;;;;;;;;;;;;;5058771;28;20387;-47
2024/03/29 03:55:56;;;;;;;;;;;;;;;;;;5067233;28;19912;-47
2024/03/29 03:58:22;;;;;;;;;;;;;;;;;;5068306;28;20001;-47
2024/03/29 04:00:48;;;;;;;;;;;;;;;;;;5040036;28;20397;-47
2024/03/29 04:03:14;;;;;;;;;;;;;;;;;;5050945;28;20289;-46
2024/03/29 04:05:40;;;;;;;;;;;;;;;;;;5034947;28;19964;-47
2024/03/29 04:08:07;;;;;;;;;;;;;;;;;;5057541;28;19908;-47
2024/03/29 04:10:33;;;;;;;;;;;;;;;;;;5051381;28;19912;-48
2024/03/29 04:12:59;;;;;;;;;;;;;;;;;;5052305;28;20011;-46
2024/03/29 04:15:25;;;;;;;;;;;;;;;;;;5053410;28;19919;-46
2024/03/29 04:17:51;;;;;;;;;;;;;;;;;;5055181;28;20255;-47
2024/03/29 04:20:18;;;;;;;;;;;;;;;;;;5069454;28;19935;-47
2024/03/29 04:22:45;;;;;;;;;;;;;;;;;;5069154;28;19916;-46
2024/03/29 04:25:11;;;;;;;;;;;;;;;;;;5050688;28;19913;-46
2024/03/29 04:27:37;;;;;;;;;;;;;;;;;;5053477;28;19974;-46
2024/03/29 04:30:03;;;;;;;;;;;;;;;;;;5063418;28;19913;-49
2024/03/29 04:32:29;;;;;;;;;;;;;;;;;;5036793;28;19921;-47
2024/03/29 04:34:55;;;;;;;;;;;;;;;;;;5056763;28;20289;-49
2024/03/29 04:37:21;;;;;;;;;;;;;;;;;;5017432;28;19977;-47
2024/03/29 04:39:47;;;;;;;;;;;;;;;;;;5043360;28;19912;-48
2024/03/29 04:42:14;;;;;;;;;;;;;;;;;;5031459;28;19917;-49
2024/03/29 04:44:40;;;;;;;;;;;;;;;;;;5051487;28;20415;-47
2024/03/29 04:47:06;;;;;;;;;;;;;;;;;;5035787;28;19913;-47
2024/03/29 04:49:39;;;;;;;;;;;;;;;;;;5059518;28;19996;-47
2024/03/29 04:52:05;;;;;;;;;;;;;;;;;;5052097;28;19913;-47
2024/03/29 04:54:31;;;;;;;;;;;;;;;;;;5055822;28;19917;-49
2024/03/29 04:56:57;;;;;;;;;;;;;;;;;;5018069;28;19944;-47
2024/03/29 04:59:23;;;;;;;;;;;;;;;;;;5058164;28;19915;-47
2024/03/29 05:01:53;;;;;;;;;;;;;;;;;;5071467;28;20292;-47
2024/03/29 05:04:25;;;;;;;;;;;;;;;;;;5058222;28;20335;-47
2024/03/29 05:06:51;;;;;;;;;;;;;;;;;;5070204;28;20015;-47
2024/03/29 05:09:17;;;;;;;;;;;;;;;;;;5057765;28;19971;-48
2024/03/29 05:11:43;;;;;;;;;;;;;;;;;;5070330;28;19934;-47
2024/03/29 05:14:10;;;;;;;;;;;;;;;;;;5041141;28;19909;-48
2024/03/29 05:16:36;;;;;;;;;;;;;;;;;;5069809;28;19936;-47
2024/03/29 05:19:02;;;;;;;;;;;;;;;;;;5065838;28;20048;-47
2024/03/29 05:21:28;;;;;;;;;;;;;;;;;;5053765;28;19913;-47
2024/03/29 05:23:54;;;;;;;;;;;;;;;;;;5057373;28;20258;-51
2024/03/29 05:26:20;;;;;;;;;;;;;;;;;;5051228;28;20015;-47
2024/03/29 05:28:48;;;;;;;;;;;;;;;;;;5063646;28;19909;-47
2024/03/29 05:31:14;;;;;;;;;;;;;;;;;;5068354;28;19919;-47
2024/03/29 05:33:40;;;;;;;;;;;;;;;;;;5066965;28;19948;-49
2024/03/29 05:36:08;;;;;;;;;;;;;;;;;;5071232;28;19919;-47
2024/03/29 05:38:34;;;;;;;;;;;;;;;;;;5051395;28;20031;-49
2024/03/29 05:41:00;;;;;;;;;;;;;;;;;;5052473;28;20424;-47
2024/03/29 05:43:26;;;;;;;;;;;;;;;;;;5070587;28;19912;-45
2024/03/29 05:45:52;;;;;;;;;;;;;;;;;;5069265;28;20007;-47
2024/03/29 05:48:22;;;;;;;;;;;;;;;;;;5051648;28;19920;-47
2024/03/29 05:50:48;;;;;;;;;;;;;;;;;;5062999;28;19917;-46
2024/03/29 05:53:14;;;;;;;;;;;;;;;;;;5061021;28;19992;-47
2024/03/29 05:55:40;;;;;;;;;;;;;;;;;;5067430;28;19918;-47
2024/03/29 05:58:06;;;;;;;;;;;;;;;;;;5072161;28;19908;-47
2024/03/29 06:00:36;;;;;;;;;;;;;;;;;;5066783;28;19935;-46
2024/03/29 06:03:05;;;;;;;;;;;;;;;;;;5053978;28;20349;-47
2024/03/29 06:05:31;;;;;;;;;;;;;;;;;;5066534;28;19944;-47
2024/03/29 06:07:57;;;;;;;;;;;;;;;;;;5072029;28;19999;-48
2024/03/29 06:10:23;;;;;;;;;;;;;;;;;;5066747;28;19919;-48
2024/03/29 06:12:49;;;;;;;;;;;;;;;;;;5071850;28;19916;-51
2024/03/29 06:18:00;;;;;;;;;;;;;;;;;;5070221;28;19916;-52
2024/03/29 06:20:26;;;;;;;;;;;;;;;;;;5064060;28;20436;-51
2024/03/29 06:22:53;;;;;;;;;;;;;;;;;;5057806;28;19924;-51
2024/03/29 06:25:19;;;;;;;;;;;;;;;;;;5066244;28;20399;-51
2024/03/29 06:27:47;;;;;;;;;;;;;;;;;;5071556;28;19992;-47
2024/03/29 06:30:13;;;;;;;;;;;;;;;;;;5066213;28;19908;-47
2024/03/29 06:32:39;;;;;;;;;;;;;;;;;;5071570;28;19924;-47
2024/03/29 06:35:06;;;;;;;;;;;;;;;;;;5059541;28;19915;-49
2024/03/29 06:37:32;;;;;;;;;;;;;;;;;;5055787;28;19917;-47
2024/03/29 06:39:58;;;;;;;;;;;;;;;;;;5065106;28;19913;-47
2024/03/29 06:42:24;;;;;;;;;;;;;;;;;;5073371;28;20372;-48
2024/03/29 06:44:51;;;;;;;;;;;;;;;;;;5044745;28;19920;-47
2024/03/29 06:47:18;;;;;;;;;;;;;;;;;;5073549;28;19974;-47
2024/03/29 06:49:44;;;;;;;;;;;;;;;;;;5065868;28;19913;-48
2024/03/29 06:52:10;;;;;;;;;;;;;;;;;;5036498;28;19972;-48
2024/03/29 06:54:36;;;;;;;;;;;;;;;;;;5066064;28;19935;-46
2024/03/29 06:57:02;;;;;;;;;;;;;;;;;;5054724;28;19913;-49
2024/03/29 06:59:28;;;;;;;;;;;;;;;;;;5043350;28;19952;-50
2024/03/29 07:01:55;;;;;;;;;;;;;;;;;;5074386;28;20292;-46
2024/03/29 07:04:21;;;;;;;;;;;;;;;;;;5061946;28;19924;-49
2024/03/29 07:06:53;;;;;;;;;;;;;;;;;;5074521;28;19912;-51
2024/03/29 07:09:19;;;;;;;;;;;;;;;;;;5061967;28;19924;-51
2024/03/29 07:11:45;;;;;;;;;;;;;;;;;;5056249;28;19909;-48
2024/03/29 07:14:11;;;;;;;;;;;;;;;;;;5062459;28;20015;-48
2024/03/29 07:16:37;;;;;;;;;;;;;;;;;;5073784;28;19956;-49
2024/03/29 07:19:03;;;;;;;;;;;;;;;;;;5067954;28;19966;-48
2024/03/29 07:21:30;;;;;;;;;;;;;;;;;;5037893;28;19916;-47
2024/03/29 07:23:56;;;;;;;;;;;;;;;;;;5041440;28;20391;-47
2024/03/29 07:26:22;;;;;;;;;;;;;;;;;;5053471;28;19915;-50
2024/03/29 07:28:48;;;;;;;;;;;;;;;;;;5065417;28;19913;-47
2024/03/29 07:31:14;;;;;;;;;;;;;;;;;;5070240;28;20395;-47
2024/03/29 07:33:40;;;;;;;;;;;;;;;;;;5066487;28;19913;-47
2024/03/29 07:36:07;;;;;;;;;;;;;;;;;;5051104;28;19908;-50
2024/03/29 07:38:34;;;;;;;;;;;;;;;;;;5067243;28;19959;-48
2024/03/29 07:41:00;;;;;;;;;;;;;;;;;;5068028;28;20002;-53
2024/03/29 07:43:26;;;;;;;;;;;;;;;;;;5068198;28;19916;-49
2024/03/29 07:45:52;;;;;;;;;;;;;;;;;;5066789;28;19909;-52
2024/03/29 07:48:18;;;;;;;;;;;;;;;;;;5067463;28;19935;-50
2024/03/29 07:50:44;;;;;;;;;;;;;;;;;;5043532;28;19969;-53
2024/03/29 07:53:10;;;;;;;;;;;;;;;;;;5058617;28;19920;-51
2024/03/29 07:55:36;;;;;;;;;;;;;;;;;;5064208;28;19909;-51
2024/03/29 07:58:03;;;;;;;;;;;;;;;;;;5051984;28;19936;-53
2024/03/29 08:00:29;;;;;;;;;;;;;;;;;;5064569;28;19912;-48
2024/03/29 08:02:55;;;;;;;;;;;;;;;;;;5051739;28;20485;-52
2024/03/29 08:05:21;;;;;;;;;;;;;;;;;;5064357;28;20003;-47
2024/03/29 08:07:47;;;;;;;;;;;;;;;;;;5069593;28;19912;-52
2024/03/29 08:10:13;;;;;;;;;;;;;;;;;;5046333;28;20369;-51
2024/03/29 08:12:40;;;;;;;;;;;;;;;;;;5052057;28;19923;-49
2024/03/29 08:15:07;;;;;;;;;;;;;;;;;;5057890;28;20352;-47
2024/03/29 08:17:33;;;;;;;;;;;;;;;;;;5053908;28;19913;-47
2024/03/29 08:19:59;;;;;;;;;;;;;;;;;;5063861;28;19951;-47
2024/03/29 08:22:25;;;;;;;;;;;;;;;;;;5036128;28;19949;-51
2024/03/29 08:24:52;;;;;;;;;;;;;;;;;;5062089;28;20384;-47
2024/03/29 08:27:18;;;;;;;;;;;;;;;;;;5071548;28;19912;-51
2024/03/29 08:29:44;;;;;;;;;;;;;;;;;;5061681;28;20288;-48
2024/03/29 08:32:13;;;;;;;;;;;;;;;;;;5072167;28;19912;-50
2024/03/29 08:34:39;;;;;;;;;;;;;;;;;;5061036;28;19987;-51
2024/03/29 08:37:05;;;;;;;;;;;;;;;;;;5054954;28;20006;-47
2024/03/29 08:39:35;;;;;;;;;;;;;;;;;;5042333;28;20387;-49
2024/03/29 08:42:08;;;;;;;;;;;;;;;;;;5072636;28;19913;-48
2024/03/29 08:44:35;;;;;;;;;;;;;;;;;;5045929;28;19939;-49
2024/03/29 08:47:02;;;;;;;;;;;;;;;;;;5052689;28;19916;-49
2024/03/29 08:49:28;;;;;;;;;;;;;;;;;;5063866;28;20308;-48
2024/03/29 08:51:55;;;;;;;;;;;;;;;;;;5052418;28;20297;-48
2024/03/29 08:54:21;;;;;;;;;;;;;;;;;;5058362;28;20394;-50
2024/03/29 08:56:47;;;;;;;;;;;;;;;;;;5072498;28;19931;-47
2024/03/29 08:59:14;;;;;;;;;;;;;;;;;;5060402;28;19912;-48
2024/03/29 09:01:40;;;;;;;;;;;;;;;;;;5072151;28;20349;-48
2024/03/29 09:04:10;;;;;;;;;;;;;;;;;;5061201;28;20011;-47
2024/03/29 09:06:36;;;;;;;;;;;;;;;;;;5053489;28;19913;-48
2024/03/29 09:09:03;;;;;;;;;;;;;;;;;;5071663;28;20024;-48
2024/03/29 09:11:29;;;;;;;;;;;;;;;;;;5054486;28;20365;-49
2024/03/29 09:13:56;;;;;;;;;;;;;;;;;;5054197;28;19912;-52
2024/03/29 09:16:22;;;;;;;;;;;;;;;;;;5072173;28;19912;-47
2024/03/29 09:18:48;;;;;;;;;;;;;;;;;;5072077;28;20347;-50
2024/03/29 09:21:14;;;;;;;;;;;;;;;;;;5072026;28;20003;-47
2024/03/29 09:23:41;;;;;;;;;;;;;;;;;;5070229;28;20349;-47
2024/03/29 09:26:07;;;;;;;;;;;;;;;;;;5071762;28;20296;-50
2024/03/29 09:28:36;;;;;;;;;;;;;;;;;;5071913;28;19919;-48
2024/03/29 09:31:03;;;;;;;;;;;;;;;;;;5071999;28;19920;-47
2024/03/29 09:33:29;;;;;;;;;;;;;;;;;;5071886;28;19975;-47
2024/03/29 09:35:55;;;;;;;;;;;;;;;;;;5071903;28;19913;-47
2024/03/29 09:38:21;;;;;;;;;;;;;;;;;;5053774;28;19947;-47
2024/03/29 09:40:47;;;;;;;;;;;;;;;;;;5071912;28;20377;-46
2024/03/29 09:43:13;;;;;;;;;;;;;;;;;;5071857;28;19924;-50
2024/03/29 09:45:39;;;;;;;;;;;;;;;;;;5071877;28;20008;-48
2024/03/29 09:48:05;;;;;;;;;;;;;;;;;;5071521;28;20369;-51
2024/03/29 09:50:31;;;;;;;;;;;;;;;;;;5071606;28;19908;-47
2024/03/29 09:52:58;;;;;;;;;;;;;;;;;;5071708;28;19934;-49
2024/03/29 09:55:24;;;;;;;;;;;;;;;;;;5071891;28;19912;-47
2024/03/29 09:57:50;;;;;;;;;;;;;;;;;;5071538;28;19912;-47
2024/03/29 10:00:18;;;;;;;;;;;;;;;;;;5071733;28;19962;-48
2024/03/29 10:02:44;;;;;;;;;;;;;;;;;;5071224;28;19948;-48
2024/03/29 10:05:10;;;;;;;;;;;;;;;;;;5053666;28;19909;-47
2024/03/29 10:07:37;;;;;;;;;;;;;;;;;;5071493;28;19912;-47
2024/03/29 10:10:03;;;;;;;;;;;;;;;;;;5071635;28;19935;-49
2024/03/29 10:12:29;;;;;;;;;;;;;;;;;;5053624;28;19916;-48
2024/03/29 10:15:04;;;;;;;;;;;;;;;;;;5053536;28;19969;-49
2024/03/29 10:17:31;;;;;;;;;;;;;;;;;;5071401;28;20368;-47
2024/03/29 10:19:57;;;;;;;;;;;;;;;;;;5074334;28;20291;-49
2024/03/29 10:22:23;;;;;;;;;;;;;;;;;;5075372;28;19913;-50
2024/03/29 10:24:49;;;;;;;;;;;;;;;;;;5075170;28;19916;-47
2024/03/29 10:27:15;;;;;;;;;;;;;;;;;;5057022;28;20000;-48
2024/03/29 10:29:41;;;;;;;;;;;;;;;;;;5057090;28;19915;-49
2024/03/29 10:32:08;;;;;;;;;;;;;;;;;;5040322;28;20348;-50
2024/03/29 10:34:36;;;;;;;;;;;;;;;;;;5074968;28;20376;-47
2024/03/29 10:37:02;;;;;;;;;;;;;;;;;;5057057;28;20423;-48
2024/03/29 10:39:28;;;;;;;;;;;;;;;;;;5056741;28;19909;-48
2024/03/29 10:41:54;;;;;;;;;;;;;;;;;;5074867;28;19919;-49
2024/03/29 10:44:21;;;;;;;;;;;;;;;;;;5074709;28;19935;-47
2024/03/29 10:46:47;;;;;;;;;;;;;;;;;;5074725;28;19912;-50
2024/03/29 10:49:16;;;;;;;;;;;;;;;;;;5074647;28;19909;-52
2024/03/29 10:51:42;;;;;;;;;;;;;;;;;;5074707;28;20346;-47
2024/03/29 10:54:09;;;;;;;;;;;;;;;;;;5074610;28;19916;-51
2024/03/29 10:56:36;;;;;;;;;;;;;;;;;;5074601;28;19958;-48
2024/03/29 10:59:02;;;;;;;;;;;;;;;;;;5056460;28;19944;-47
2024/03/29 11:01:28;;;;;;;;;;;;;;;;;;5074445;28;19923;-48
2024/03/29 11:03:54;;;;;;;;;;;;;;;;;;5099792;23;20266;-53
2024/03/29 11:06:21;;;;;;;;;;;;;;;;;;5094712;28;19912;-49
2024/03/29 11:08:48;;;;;;;;;;;;;;;;;;5094133;28;19908;-49
2024/03/29 11:11:15;;;;;;;;;;;;;;;;;;5094619;28;19920;-49
2024/03/29 11:13:41;;;;;;;;;;;;;;;;;;5093414;28;19912;-49
2024/03/29 11:16:08;;;;;;;;;;;;;;;;;;5076236;28;19912;-49
2024/03/29 11:18:34;;;;;;;;;;;;;;;;;;5089759;28;20432;-49
2024/03/29 11:21:00;;;;;;;;;;;;;;;;;;5080512;28;20379;-49
2024/03/29 11:23:26;;;;;;;;;;;;;;;;;;5102946;28;19927;-49
2024/03/29 11:25:57;;;;;;;;;;;;;;;;;;5074969;28;19955;-49
2024/03/29 11:28:25;;;;;;;;;;;;;;;;;;5091213;28;19920;-49
2024/03/29 11:30:56;;;;;;;;;;;;;;;;;;5091907;28;19908;-49
2024/03/29 11:33:22;;;;;;;;;;;;;;;;;;5080749;28;19917;-49
2024/03/29 11:35:48;;;;;;;;;;;;;;;;;;5072335;28;19956;-49
2024/03/29 11:38:14;;;;;;;;;;;;;;;;;;5072115;28;19919;-50
2024/03/29 11:40:41;;;;;;;;;;;;;;;;;;5072065;28;19935;-49
2024/03/29 11:43:07;;;;;;;;;;;;;;;;;;5071902;28;19916;-49
2024/03/29 11:45:34;;;;;;;;;;;;;;;;;;5083076;28;20288;-49
2024/03/29 11:48:00;;;;;;;;;;;;;;;;;;5085532;28;20018;-49
2024/03/29 11:50:26;;;;;;;;;;;;;;;;;;5085736;28;19927;-52
2024/03/29 11:52:52;;;;;;;;;;;;;;;;;;5081083;28;20309;-49
2024/03/29 11:55:19;;;;;;;;;;;;;;;;;;5088712;28;19916;-49
2024/03/29 11:57:45;;;;;;;;;;;;;;;;;;5078840;28;19922;-50
2024/03/29 12:00:11;;;;;;;;;;;;;;;;;;5088095;28;19961;-49
2024/03/29 12:02:37;;;;;;;;;;;;;;;;;;5087426;28;20273;-52
2024/03/29 12:05:03;;;;;;;;;;;;;;;;;;5066706;28;19927;-50
2024/03/29 12:07:30;;;;;;;;;;;;;;;;;;5081517;28;20454;-49
2024/03/29 12:09:56;;;;;;;;;;;;;;;;;;5086188;28;20380;-49
2024/03/29 12:12:22;;;;;;;;;;;;;;;;;;5074861;28;19920;-49
2024/03/29 12:14:48;;;;;;;;;;;;;;;;;;5075288;28;20280;-53
2024/03/29 12:17:14;;;;;;;;;;;;;;;;;;5079659;28;20384;-49
2024/03/29 12:19:42;;;;;;;;;;;;;;;;;;5091129;28;20395;-49
2024/03/29 12:22:08;;;;;;;;;;;;;;;;;;5091120;28;20372;-51
2024/03/29 12:24:35;;;;;;;;;;;;;;;;;;5085317;28;19916;-50
2024/03/29 12:27:01;;;;;;;;;;;;;;;;;;5091859;28;19919;-49
2024/03/29 12:29:27;;;;;;;;;;;;;;;;;;5073219;28;19958;-49
2024/03/29 12:31:53;;;;;;;;;;;;;;;;;;5088450;28;19920;-49
2024/03/29 12:34:19;;;;;;;;;;;;;;;;;;5091599;28;19919;-50
2024/03/29 12:36:45;;;;;;;;;;;;;;;;;;5089750;28;19916;-50
2024/03/29 12:39:11;;;;;;;;;;;;;;;;;;5054226;28;20006;-49
2024/03/29 12:41:37;;;;;;;;;;;;;;;;;;5080335;28;19992;-52
2024/03/29 12:44:03;;;;;;;;;;;;;;;;;;5089719;28;19927;-49
2024/03/29 12:46:30;;;;;;;;;;;;;;;;;;5072846;28;19924;-50
2024/03/29 12:48:56;;;;;;;;;;;;;;;;;;5070802;28;20274;-50
2024/03/29 12:51:22;;;;;;;;;;;;;;;;;;5070027;28;19923;-52
2024/03/29 12:53:48;;;;;;;;;;;;;;;;;;5090491;28;19915;-49
2024/03/29 12:56:15;;;;;;;;;;;;;;;;;;5087095;28;19973;-49
2024/03/29 12:58:41;;;;;;;;;;;;;;;;;;5036232;28;19913;-49
2024/03/29 13:01:07;;;;;;;;;;;;;;;;;;5077533;28;20036;-50
2024/03/29 13:03:33;;;;;;;;;;;;;;;;;;5088996;28;19920;-50
2024/03/29 13:05:59;;;;;;;;;;;;;;;;;;5090914;28;19959;-49
2024/03/29 13:08:26;;;;;;;;;;;;;;;;;;5070829;28;19915;-50
2024/03/29 13:10:52;;;;;;;;;;;;;;;;;;5053780;28;19996;-54
2024/03/29 13:13:18;;;;;;;;;;;;;;;;;;5081794;28;20011;-50
2024/03/29 13:15:47;;;;;;;;;;;;;;;;;;5091904;28;19951;-50
2024/03/29 13:18:16;;;;;;;;;;;;;;;;;;5110963;28;20451;-49
2024/03/29 13:20:42;;;;;;;;;;;;;;;;;;5102345;28;20391;-49
2024/03/29 13:23:08;;;;;;;;;;;;;;;;;;5078689;28;19916;-51
2024/03/29 13:25:34;;;;;;;;;;;;;;;;;;5070431;28;19921;-52
2024/03/29 13:28:01;;;;;;;;;;;;;;;;;;5085511;28;19999;-51
2024/03/29 13:30:27;;;;;;;;;;;;;;;;;;5087927;28;20409;-50
2024/03/29 13:32:53;;;;;;;;;;;;;;;;;;5077442;28;19912;-50
2024/03/29 13:35:21;;;;;;;;;;;;;;;;;;5086648;28;20699;-50
2024/03/29 13:37:47;;;;;;;;;;;;;;;;;;5076565;28;19969;-51
2024/03/29 13:40:13;;;;;;;;;;;;;;;;;;5089593;28;20339;-51
2024/03/29 13:42:39;;;;;;;;;;;;;;;;;;5085548;28;19908;-51
2024/03/29 13:45:06;;;;;;;;;;;;;;;;;;5072889;28;19913;-51
2024/03/29 13:47:32;;;;;;;;;;;;;;;;;;5078540;28;19909;-52
2024/03/29 13:49:58;;;;;;;;;;;;;;;;;;5052161;28;20269;-52
2024/03/29 13:52:24;;;;;;;;;;;;;;;;;;5067590;28;20296;-49
2024/03/29 13:54:50;;;;;;;;;;;;;;;;;;5092089;28;19919;-50
2024/03/29 13:57:16;;;;;;;;;;;;;;;;;;5081143;28;19912;-51
2024/03/29 13:59:43;;;;;;;;;;;;;;;;;;5074556;28;20013;-51
2024/03/29 14:02:09;;;;;;;;;;;;;;;;;;5059540;28;19958;-50
2024/03/29 14:04:35;;;;;;;;;;;;;;;;;;5093726;28;19922;-51
2024/03/29 14:07:03;;;;;;;;;;;;;;;;;;5095603;28;20318;-50
2024/03/29 14:09:29;;;;;;;;;;;;;;;;;;5094977;28;20008;-49
2024/03/29 14:11:56;;;;;;;;;;;;;;;;;;5086580;28;20402;-50
2024/03/29 14:14:22;;;;;;;;;;;;;;;;;;5090127;28;19961;-50
2024/03/29 14:16:48;;;;;;;;;;;;;;;;;;5102569;28;19916;-50
2024/03/29 14:19:14;;;;;;;;;;;;;;;;;;5101800;28;19966;-50
2024/03/29 14:21:40;;;;;;;;;;;;;;;;;;5102418;28;19919;-50
2024/03/29 14:24:06;;;;;;;;;;;;;;;;;;5101569;28;19938;-50
2024/03/29 14:26:33;;;;;;;;;;;;;;;;;;5097972;28;20295;-50
2024/03/29 14:28:59;;;;;;;;;;;;;;;;;;5100923;28;19920;-49
2024/03/29 14:31:25;;;;;;;;;;;;;;;;;;5096714;28;20376;-50
2024/03/29 14:33:51;;;;;;;;;;;;;;;;;;5109935;28;19912;-49
2024/03/29 14:36:17;;;;;;;;;;;;;;;;;;5091370;28;20356;-49
2024/03/29 14:38:43;;;;;;;;;;;;;;;;;;5059274;28;19921;-49
2024/03/29 14:41:09;;;;;;;;;;;;;;;;;;5094107;28;21272;-49
2024/03/29 14:43:35;;;;;;;;;;;;;;;;;;5091843;28;19916;-49
2024/03/29 14:46:01;;;;;;;;;;;;;;;;;;5084216;28;19916;-50
2024/03/29 14:48:28;;;;;;;;;;;;;;;;;;5081908;28;20422;-49
2024/03/29 14:50:56;;;;;;;;;;;;;;;;;;5074715;28;19920;-50
2024/03/29 14:53:22;;;;;;;;;;;;;;;;;;5074676;28;19943;-49
2024/03/29 14:55:48;;;;;;;;;;;;;;;;;;5056913;28;19909;-50
2024/03/29 14:58:14;;;;;;;;;;;;;;;;;;5074616;28;20273;-49
2024/03/29 15:00:40;;;;;;;;;;;;;;;;;;5056660;28;19955;-50
2024/03/29 15:03:06;;;;;;;;;;;;;;;;;;5074437;28;19917;-50
2024/03/29 15:05:32;;;;;;;;;;;;;;;;;;5073423;28;20388;-50
2024/03/29 15:07:58;;;;;;;;;;;;;;;;;;5056451;28;19947;-51
2024/03/29 15:10:25;;;;;;;;;;;;;;;;;;5056654;28;19909;-50
2024/03/29 15:12:51;;;;;;;;;;;;;;;;;;5074396;28;19999;-51
2024/03/29 15:15:18;;;;;;;;;;;;;;;;;;5056378;28;19909;-50
2024/03/29 15:17:44;;;;;;;;;;;;;;;;;;5056346;28;20348;-49
2024/03/29 15:20:11;;;;;;;;;;;;;;;;;;5074365;28;19908;-49
2024/03/29 15:22:38;;;;;;;;;;;;;;;;;;5074175;28;19913;-49
2024/03/29 15:25:04;;;;;;;;;;;;;;;;;;5056217;28;19916;-51
2024/03/29 15:30:14;;;;;;;;;;;;;;;;;;5074397;28;19912;-50
2024/03/29 15:32:40;;;;;;;;;;;;;;;;;;5074082;28;19931;-50
2024/03/29 15:35:07;;;;;;;;;;;;;;;;;;5073972;28;19916;-50
2024/03/29 15:37:33;;;;;;;;;;;;;;;;;;5073806;28;20004;-49
2024/03/29 15:39:59;;;;;;;;;;;;;;;;;;5055994;28;20443;-49
2024/03/29 15:42:25;;;;;;;;;;;;;;;;;;5073937;28;19948;-50
2024/03/29 15:44:51;;;;;;;;;;;;;;;;;;5073678;28;20296;-51
2024/03/29 15:47:17;;;;;;;;;;;;;;;;;;5073648;28;19912;-47
2024/03/29 15:49:43;;;;;;;;;;;;;;;;;;5055819;28;19912;-50
2024/03/29 15:52:09;;;;;;;;;;;;;;;;;;5073615;28;19908;-49
2024/03/29 15:54:35;;;;;;;;;;;;;;;;;;5073075;28;19963;-49
2024/03/29 15:57:01;;;;;;;;;;;;;;;;;;5109648;28;19939;-49
2024/03/29 15:59:27;;;;;;;;;;;;;;;;;;5113145;28;20372;-49
2024/03/29 16:01:55;;;;;;;;;;;;;;;;;;5114072;28;19907;-49
2024/03/29 16:04:21;;;;;;;;;;;;;;;;;;5113454;28;19964;-49
2024/03/29 16:06:47;;;;;;;;;;;;;;;;;;5113049;28;19912;-49
2024/03/29 16:09:13;;;;;;;;;;;;;;;;;;5095440;28;19912;-49
2024/03/29 16:11:40;;;;;;;;;;;;;;;;;;5095553;28;19915;-49
2024/03/29 16:14:06;;;;;;;;;;;;;;;;;;5113721;28;20292;-53
2024/03/29 16:16:32;;;;;;;;;;;;;;;;;;5095202;28;19984;-50
2024/03/29 16:18:58;;;;;;;;;;;;;;;;;;5113586;28;20247;-49
2024/03/29 16:21:25;;;;;;;;;;;;;;;;;;5113571;28;20308;-49
2024/03/29 16:23:51;;;;;;;;;;;;;;;;;;5113410;28;19915;-50
2024/03/29 16:26:18;;;;;;;;;;;;;;;;;;5113428;28;20015;-49
2024/03/29 16:28:44;;;;;;;;;;;;;;;;;;5094931;28;19919;-50
2024/03/29 16:31:10;;;;;;;;;;;;;;;;;;5113352;28;19907;-49
2024/03/29 16:33:38;;;;;;;;;;;;;;;;;;5113353;28;19973;-49
2024/03/29 16:36:04;;;;;;;;;;;;;;;;;;5113339;28;19908;-49
2024/03/29 16:38:30;;;;;;;;;;;;;;;;;;5094770;28;19961;-49
2024/03/29 16:40:56;;;;;;;;;;;;;;;;;;5113087;28;19911;-49
2024/03/29 16:43:22;;;;;;;;;;;;;;;;;;5113083;28;19923;-49
2024/03/29 16:45:48;;;;;;;;;;;;;;;;;;5113445;28;19908;-49
2024/03/29 16:48:14;;;;;;;;;;;;;;;;;;5094845;28;20403;-49